createdAt,value
2023-03-05T00:01:35.337Z,99774.78
2023-03-05T00:04:05.902Z,99777.06
2023-03-05T00:06:33.853Z,99779.97
2023-03-05T00:09:01.461Z,99775.69
2023-03-05T00:11:30.705Z,99768.47
2023-03-05T00:14:00.675Z,99768.63
2023-03-05T00:16:29.389Z,99770.78
2023-03-05T00:18:59.024Z,99773.38
2023-03-05T00:21:32.034Z,99765.03
2023-03-05T00:24:01.607Z,99766.78
2023-03-05T00:26:30.885Z,99779.47
2023-03-05T00:29:00.123Z,99767.13
2023-03-05T00:31:31.829Z,99768.97
2023-03-05T00:34:12.776Z,99769.53
2023-03-05T00:36:46.124Z,99769.53
2023-03-05T00:39:14.243Z,99775.50
2023-03-05T00:41:41.486Z,99774.91
2023-03-05T00:44:08.652Z,99778.72
2023-03-05T00:46:36.742Z,99766.78
2023-03-05T00:49:04.216Z,99769.84
2023-03-05T00:51:31.548Z,99780.91
2023-03-05T00:53:58.730Z,99773.13
2023-03-05T00:56:25.993Z,99770.91
2023-03-05T00:58:53.371Z,99771.06
2023-03-05T01:01:20.726Z,99763.13
2023-03-05T01:03:48.055Z,99765.25
2023-03-05T01:06:17.090Z,99768.53
2023-03-05T01:08:45.749Z,99766.50
2023-03-05T01:11:14.441Z,99763.50
2023-03-05T01:13:41.852Z,99754.53
2023-03-05T01:16:19.203Z,99757.78
2023-03-05T01:18:49.364Z,99754.09
2023-03-05T01:21:16.657Z,99754.53
2023-03-05T01:23:44.961Z,99755.41
2023-03-05T01:26:12.150Z,99752.13
2023-03-05T01:29:04.906Z,99749.34
2023-03-05T01:31:32.381Z,99744.72
2023-03-05T01:34:00.711Z,99749.47
2023-03-05T01:36:29.158Z,99742.06
2023-03-05T01:39:12.780Z,99746.50
2023-03-05T01:41:47.111Z,99739.97
2023-03-05T01:44:30.070Z,99735.81
2023-03-05T01:46:58.032Z,99739.34
2023-03-05T01:49:33.921Z,99738.13
2023-03-05T01:52:18.252Z,99737.16
2023-03-05T01:55:16.504Z,99732.09
2023-03-05T01:57:54.313Z,99721.84
2023-03-05T02:00:48.844Z,99729.16
2023-03-05T02:03:17.329Z,99727.28
2023-03-05T02:05:47.937Z,99719.19
2023-03-05T02:08:22.568Z,99727.53
2023-03-05T02:11:11.677Z,99735.72
2023-03-05T02:13:40.809Z,99730.22
2023-03-05T02:16:08.536Z,99724.59
2023-03-05T02:18:38.928Z,99718.19
2023-03-05T02:21:11.157Z,99717.66
2023-03-05T02:23:40.185Z,99716.97
2023-03-05T02:26:10.867Z,99711.47
2023-03-05T02:28:54.453Z,99714.28
2023-03-05T02:31:25.258Z,99706.63
2023-03-05T02:33:55.964Z,99714.03
2023-03-05T02:36:24.614Z,99712.34
2023-03-05T02:38:53.582Z,99700.75
2023-03-05T02:41:21.272Z,99704.81
2023-03-05T02:43:49.005Z,99704.47
2023-03-05T02:46:16.514Z,99703.47
2023-03-05T02:48:44.732Z,99710.88
2023-03-05T02:51:14.119Z,99695.38
2023-03-05T02:53:43.601Z,99703.91
2023-03-05T02:56:11.028Z,99693.13
2023-03-05T02:58:38.524Z,99695.50
2023-03-05T03:01:05.873Z,99689.06
2023-03-05T03:03:33.206Z,99692.44
2023-03-05T03:06:00.456Z,99698.06
2023-03-05T03:08:28.189Z,99699.97
2023-03-05T03:10:56.483Z,99696.69
2023-03-05T03:13:25.283Z,99701.13
2023-03-05T03:16:14.001Z,99691.53
2023-03-05T03:18:42.133Z,99685.25
2023-03-05T03:21:09.327Z,99690.97
2023-03-05T03:23:36.489Z,99683.44
2023-03-05T03:26:03.739Z,99691.06
2023-03-05T03:28:30.977Z,99677.69
2023-03-05T03:30:58.145Z,99686.03
2023-03-05T03:33:25.359Z,99680.16
2023-03-05T03:35:52.576Z,99678.91
2023-03-05T03:38:19.807Z,99685.00
2023-03-05T03:40:46.937Z,99688.38
2023-03-05T03:43:14.106Z,99684.09
2023-03-05T03:45:43.704Z,99681.28
2023-03-05T03:48:11.582Z,99688.81
2023-03-05T03:50:44.043Z,99684.31
2023-03-05T03:53:14.224Z,99686.00
2023-03-05T03:55:42.997Z,99687.47
2023-03-05T03:58:10.134Z,99687.47
2023-03-05T04:00:41.054Z,99682.19
2023-03-05T04:03:09.143Z,99682.94
2023-03-05T04:05:36.332Z,99680.38
2023-03-05T04:08:03.816Z,99679.13
2023-03-05T04:10:30.976Z,99680.69
2023-03-05T04:12:58.362Z,99685.63
2023-03-05T04:15:25.597Z,99675.19
2023-03-05T04:17:52.893Z,99672.16
2023-03-05T04:20:20.267Z,99671.72
2023-03-05T04:22:47.473Z,99672.47
2023-03-05T04:25:14.910Z,99672.47
2023-03-05T04:27:42.132Z,99662.25
2023-03-05T04:30:17.144Z,99665.84
2023-03-05T04:32:44.286Z,99665.19
2023-03-05T04:35:11.518Z,99662.25
2023-03-05T04:37:38.848Z,99664.09
2023-03-05T04:40:09.515Z,99661.63
2023-03-05T04:42:37.166Z,99661.59
2023-03-05T04:45:07.945Z,99659.78
2023-03-05T04:47:35.420Z,99663.84
2023-03-05T04:50:04.698Z,99658.69
2023-03-05T04:52:32.257Z,99662.03
2023-03-05T04:54:59.527Z,99657.44
2023-03-05T04:57:26.910Z,99659.31
2023-03-05T04:59:54.249Z,99660.47
2023-03-05T05:02:21.409Z,99662.94
2023-03-05T05:04:48.706Z,99656.63
2023-03-05T05:07:16.487Z,99662.69
2023-03-05T05:09:43.989Z,99659.06
2023-03-05T05:12:11.189Z,99657.91
2023-03-05T05:14:38.856Z,99657.78
2023-03-05T05:17:06.201Z,99659.22
2023-03-05T05:19:35.741Z,99657.94
2023-03-05T05:22:03.356Z,99656.16
2023-03-05T05:24:30.602Z,99667.97
2023-03-05T05:26:58.211Z,99673.38
2023-03-05T05:29:26.110Z,99671.78
2023-03-05T05:31:54.152Z,99672.66
2023-03-05T05:34:21.470Z,99680.06
2023-03-05T05:36:49.035Z,99671.75
2023-03-05T05:39:16.305Z,99678.59
2023-03-05T05:41:43.734Z,99683.00
2023-03-05T05:44:11.005Z,99675.53
2023-03-05T05:46:38.276Z,99670.81
2023-03-05T05:49:05.708Z,99670.91
2023-03-05T05:51:32.989Z,99667.53
2023-03-05T05:54:00.983Z,99664.09
2023-03-05T05:56:28.800Z,99674.22
2023-03-05T05:58:56.263Z,99670.91
2023-03-05T06:01:32.270Z,99674.41
2023-03-05T06:03:59.901Z,99679.25
2023-03-05T06:06:29.164Z,99677.47
2023-03-05T06:08:57.236Z,99677.16
2023-03-05T06:11:24.493Z,99671.28
2023-03-05T06:13:52.022Z,99672.44
2023-03-05T06:16:26.142Z,99673.97
2023-03-05T06:18:56.487Z,99676.81
2023-03-05T06:21:30.336Z,99680.41
2023-03-05T06:24:07.917Z,99676.00
2023-03-05T06:26:35.364Z,99673.03
2023-03-05T06:29:04.048Z,99671.44
2023-03-05T06:31:31.544Z,99675.97
2023-03-05T06:34:01.652Z,99681.03
2023-03-05T06:36:30.463Z,99681.25
2023-03-05T06:38:58.748Z,99680.78
2023-03-05T06:41:30.778Z,99680.56
2023-03-05T06:44:02.439Z,99677.44
2023-03-05T06:46:34.062Z,99677.66
2023-03-05T06:49:03.932Z,99672.09
2023-03-05T06:51:39.792Z,99668.75
2023-03-05T06:54:16.716Z,99668.78
2023-03-05T06:56:47.203Z,99678.91
2023-03-05T06:59:17.531Z,99675.19
2023-03-05T07:01:45.656Z,99685.00
2023-03-05T07:04:14.688Z,99679.94
2023-03-05T07:06:42.960Z,99670.63
2023-03-05T07:09:16.134Z,99667.56
2023-03-05T07:11:43.733Z,99672.31
2023-03-05T07:14:11.607Z,99671.06
2023-03-05T07:16:39.002Z,99673.53
2023-03-05T07:19:07.990Z,99667.31
2023-03-05T07:21:39.549Z,99663.81
2023-03-05T07:24:08.938Z,99662.13
2023-03-05T07:26:36.313Z,99653.44
2023-03-05T07:29:03.936Z,99662.16
2023-03-05T07:31:31.954Z,99657.63
2023-03-05T07:34:02.642Z,99659.03
2023-03-05T07:36:30.889Z,99657.88
2023-03-05T07:38:58.225Z,99661.09
2023-03-05T07:41:25.924Z,99665.13
2023-03-05T07:43:55.008Z,99661.44
2023-03-05T07:46:32.162Z,99664.00
2023-03-05T07:49:00.421Z,99664.59
2023-03-05T07:51:28.659Z,99672.09
2023-03-05T07:53:58.798Z,99674.69
2023-03-05T07:56:35.358Z,99665.84
2023-03-05T07:59:07.981Z,99668.22
2023-03-05T08:01:36.557Z,99668.81
2023-03-05T08:04:05.628Z,99674.63
2023-03-05T08:06:33.244Z,99665.03
2023-03-05T08:09:00.689Z,99683.88
2023-03-05T08:11:28.750Z,99680.56
2023-03-05T08:13:59.264Z,99680.16
2023-03-05T08:16:27.019Z,99675.72
2023-03-05T08:18:58.786Z,99675.88
2023-03-05T08:21:30.610Z,99667.09
2023-03-05T08:23:59.185Z,99671.72
2023-03-05T08:26:31.471Z,99666.97
2023-03-05T08:28:59.788Z,99656.84
2023-03-05T08:31:30.226Z,99661.13
2023-03-05T08:34:02.958Z,99658.81
2023-03-05T08:36:33.873Z,99654.69
2023-03-05T08:39:02.659Z,99665.44
2023-03-05T08:41:31.362Z,99661.47
2023-03-05T08:43:59.646Z,99660.91
2023-03-05T08:46:27.326Z,99657.94
2023-03-05T08:48:54.737Z,99645.66
2023-03-05T08:51:25.951Z,99646.97
2023-03-05T08:54:03.312Z,99634.28
2023-03-05T08:56:31.495Z,99643.75
2023-03-05T08:58:59.084Z,99639.25
2023-03-05T09:01:28.109Z,99632.34
2023-03-05T09:03:57.365Z,99642.34
2023-03-05T09:06:26.324Z,99634.13
2023-03-05T09:08:54.621Z,99636.34
2023-03-05T09:11:23.416Z,99634.44
2023-03-05T09:13:53.689Z,99622.06
2023-03-05T09:16:23.153Z,99629.94
2023-03-05T09:18:50.679Z,99633.28
2023-03-05T09:21:19.232Z,99630.50
2023-03-05T09:23:47.431Z,99626.09
2023-03-05T09:26:19.534Z,99629.25
2023-03-05T09:28:48.719Z,99622.78
2023-03-05T09:31:17.119Z,99617.91
2023-03-05T09:33:44.969Z,99614.28
2023-03-05T09:36:29.827Z,99617.69
2023-03-05T09:38:58.121Z,99613.66
2023-03-05T09:42:55.611Z,99610.75
2023-03-05T09:46:11.395Z,99611.47
2023-03-05T09:49:01.657Z,99604.63
2023-03-05T09:51:40.466Z,99601.19
2023-03-05T09:54:24.055Z,99597.81
2023-03-05T09:57:03.129Z,99596.81
2023-03-05T10:00:28.459Z,99593.13
2023-03-05T10:03:01.555Z,99598.50
2023-03-05T10:05:45.903Z,99585.75
2023-03-05T10:08:18.646Z,99584.75
2023-03-05T10:14:04.167Z,99575.75
2023-03-05T10:17:05.294Z,99580.91
2023-03-05T10:20:07.111Z,99572.84
2023-03-05T10:23:29.814Z,99566.28
2023-03-05T10:26:51.089Z,99565.63
2023-03-05T10:29:58.043Z,99572.53
2023-03-05T10:32:43.919Z,99571.53
2023-03-05T10:35:45.762Z,99572.53
2023-03-05T10:39:06.405Z,99567.06
2023-03-05T10:41:56.496Z,99558.72
2023-03-05T10:44:57.489Z,99550.28
2023-03-05T10:47:59.047Z,99548.56
2023-03-05T10:50:46.122Z,99545.25
2023-03-05T10:53:38.621Z,99539.63
2023-03-05T10:56:07.477Z,99520.78
2023-03-05T10:58:38.695Z,99525.34
2023-03-05T11:01:32.210Z,99521.63
2023-03-05T11:04:29.475Z,99523.81
2023-03-05T11:07:02.190Z,99507.16
2023-03-05T11:09:57.676Z,99504.78
2023-03-05T11:12:33.679Z,99502.13
2023-03-05T11:15:14.129Z,99492.44
2023-03-05T11:18:21.441Z,99480.47
2023-03-05T11:20:49.485Z,99476.44
2023-03-05T11:23:25.358Z,99483.00
2023-03-05T11:26:03.826Z,99482.41
2023-03-05T11:28:53.811Z,99472.56
2023-03-05T11:31:33.640Z,99459.78
2023-03-05T11:34:23.710Z,99451.13
2023-03-05T11:36:53.878Z,99454.66
2023-03-05T11:39:25.118Z,99442.06
2023-03-05T11:41:59.752Z,99433.41
2023-03-05T11:44:52.176Z,99428.59
2023-03-05T11:47:55.548Z,99436.13
2023-03-05T11:50:29.943Z,99420.06
2023-03-05T11:53:23.975Z,99411.09
2023-03-05T11:56:11.959Z,99414.25
2023-03-05T11:59:02.152Z,99415.94
2023-03-05T12:01:36.377Z,99412.94
2023-03-05T12:04:08.502Z,99406.44
2023-03-05T12:07:07.361Z,99404.75
2023-03-05T12:09:52.795Z,99391.91
2023-03-05T12:12:56.225Z,99392.09
2023-03-05T12:15:45.104Z,99392.56
2023-03-05T12:18:45.281Z,99391.72
2023-03-05T12:21:26.609Z,99374.56
2023-03-05T12:24:01.667Z,99387.97
2023-03-05T12:26:54.214Z,99375.38
2023-03-05T12:29:54.397Z,99364.19
2023-03-05T12:32:31.459Z,99364.25
2023-03-05T12:35:29.413Z,99364.91
2023-03-05T12:38:01.802Z,99350.66
2023-03-05T12:40:34.956Z,99355.72
2023-03-05T12:43:35.013Z,99351.91
2023-03-05T12:46:32.811Z,99349.31
2023-03-05T12:49:00.168Z,99340.97
2023-03-05T12:51:39.685Z,99329.53
2023-03-05T12:54:31.237Z,99326.25
2023-03-05T12:57:26.358Z,99330.97
2023-03-05T13:00:14.747Z,99330.97
2023-03-05T13:02:45.881Z,99325.66
2023-03-05T13:05:34.364Z,99318.41
2023-03-05T13:08:31.646Z,99307.25
2023-03-05T13:11:21.401Z,99301.25
2023-03-05T13:13:50.305Z,99298.09
2023-03-05T13:16:36.921Z,99296.56
2023-03-05T13:19:04.723Z,99288.06
2023-03-05T13:21:35.280Z,99288.31
2023-03-05T13:24:04.026Z,99286.97
2023-03-05T13:26:41.446Z,99289.69
2023-03-05T13:29:30.597Z,99288.22
2023-03-05T13:32:03.223Z,99295.16
2023-03-05T13:34:46.746Z,99277.28
2023-03-05T13:37:22.256Z,99265.13
2023-03-05T13:40:00.171Z,99272.53
2023-03-05T13:42:34.709Z,99269.22
2023-03-05T13:45:21.719Z,99268.97
2023-03-05T13:48:03.702Z,99260.41
2023-03-05T13:50:39.414Z,99261.94
2023-03-05T13:53:28.171Z,99256.28
2023-03-05T13:56:01.181Z,99261.31
2023-03-05T13:58:56.082Z,99252.69
2023-03-05T14:01:44.559Z,99244.06
2023-03-05T14:04:14.524Z,99246.19
2023-03-05T14:06:58.779Z,99243.66
2023-03-05T14:09:43.049Z,99241.88
2023-03-05T14:12:40.711Z,99242.38
2023-03-05T14:15:37.692Z,99229.84
2023-03-05T14:18:23.194Z,99230.50
2023-03-05T14:21:09.551Z,99223.25
2023-03-05T14:23:44.553Z,99215.63
2023-03-05T14:26:29.348Z,99218.75
2023-03-05T14:29:14.670Z,99224.69
2023-03-05T14:32:08.034Z,99212.34
2023-03-05T14:34:42.807Z,99206.13
2023-03-05T14:37:26.660Z,99206.88
2023-03-05T14:40:05.309Z,99198.34
2023-03-05T14:42:38.983Z,99194.91
2023-03-05T14:45:27.801Z,99199.13
2023-03-05T14:48:00.225Z,99196.69
2023-03-05T14:50:33.927Z,99193.16
2023-03-05T14:53:10.444Z,99187.19
2023-03-05T14:55:38.356Z,99189.59
2023-03-05T14:58:25.909Z,99178.03
2023-03-05T15:00:55.248Z,99183.28
2023-03-05T15:03:23.928Z,99184.69
2023-03-05T15:05:58.153Z,99177.13
2023-03-05T15:08:32.198Z,99171.16
2023-03-05T15:11:00.399Z,99168.56
2023-03-05T15:13:27.679Z,99170.03
2023-03-05T15:15:55.539Z,99160.47
2023-03-05T15:18:23.714Z,99154.50
2023-03-05T15:20:52.918Z,99161.31
2023-03-05T15:23:20.610Z,99155.81
2023-03-05T15:25:48.216Z,99152.72
2023-03-05T15:28:16.016Z,99151.19
2023-03-05T15:30:46.930Z,99145.00
2023-03-05T15:33:17.437Z,99140.00
2023-03-05T15:35:45.148Z,99131.13
2023-03-05T15:38:12.459Z,99131.31
2023-03-05T15:40:39.610Z,99135.69
2023-03-05T15:43:06.794Z,99132.72
2023-03-05T15:45:33.954Z,99120.72
2023-03-05T15:48:01.424Z,99124.31
2023-03-05T15:50:28.663Z,99119.84
2023-03-05T15:52:55.839Z,99115.19
2023-03-05T15:55:23.235Z,99118.06
2023-03-05T15:57:53.954Z,99113.25
2023-03-05T16:00:29.716Z,99100.97
2023-03-05T16:02:57.036Z,99102.19
2023-03-05T16:05:24.282Z,99108.31
2023-03-05T16:07:53.368Z,99102.06
2023-03-05T16:10:26.047Z,99104.81
2023-03-05T16:13:06.168Z,99099.50
2023-03-05T16:15:35.119Z,99098.66
2023-03-05T16:18:08.422Z,99100.28
2023-03-05T16:20:36.296Z,99091.56
2023-03-05T16:23:05.700Z,99094.91
2023-03-05T16:25:32.966Z,99088.63
2023-03-05T16:28:00.145Z,99096.88
2023-03-05T16:30:27.471Z,99101.09
2023-03-05T16:32:54.631Z,99093.97
2023-03-05T16:35:22.225Z,99101.38
2023-03-05T16:37:49.696Z,99097.06
2023-03-05T16:40:17.351Z,99107.69
2023-03-05T16:42:44.604Z,99096.16
2023-03-05T16:45:12.863Z,99099.34
2023-03-05T16:47:41.059Z,99098.38
2023-03-05T16:50:11.256Z,99106.28
2023-03-05T16:52:38.502Z,99106.81
2023-03-05T16:55:08.694Z,99108.41
2023-03-05T16:57:40.019Z,99103.72
2023-03-05T17:00:11.575Z,99110.94
2023-03-05T17:02:39.128Z,99107.75
2023-03-05T17:05:06.821Z,99110.81
2023-03-05T17:07:33.975Z,99108.75
2023-03-05T17:10:01.341Z,99110.44
2023-03-05T17:12:28.680Z,99117.13
2023-03-05T17:14:56.023Z,99114.63
2023-03-05T17:17:23.204Z,99113.19
2023-03-05T17:19:50.356Z,99115.28
2023-03-05T17:22:17.744Z,99124.47
2023-03-05T17:24:47.160Z,99115.38
2023-03-05T17:27:14.525Z,99118.53
2023-03-05T17:29:41.671Z,99121.41
2023-03-05T17:32:08.914Z,99126.09
2023-03-05T17:34:37.105Z,99131.06
2023-03-05T17:37:06.058Z,99131.88
2023-03-05T17:39:34.132Z,99136.22
2023-03-05T17:42:01.768Z,99137.66
2023-03-05T17:44:29.106Z,99141.94
2023-03-05T17:46:56.257Z,99138.47
2023-03-05T17:49:23.436Z,99151.59
2023-03-05T17:51:50.682Z,99147.94
2023-03-05T17:54:17.904Z,99147.81
2023-03-05T17:56:45.072Z,99151.34
2023-03-05T17:59:12.230Z,99156.09
2023-03-05T18:01:39.681Z,99165.34
2023-03-05T18:04:07.108Z,99159.72
2023-03-05T18:06:34.298Z,99159.63
2023-03-05T18:09:01.552Z,99162.72
2023-03-05T18:11:30.599Z,99161.13
2023-03-05T18:13:57.955Z,99170.53
2023-03-05T18:16:25.361Z,99168.81
2023-03-05T18:18:53.216Z,99174.19
2023-03-05T18:21:23.300Z,99175.19
2023-03-05T18:23:51.710Z,99178.00
2023-03-05T18:26:18.786Z,99179.22
2023-03-05T18:28:46.265Z,99179.94
2023-03-05T18:31:13.662Z,99186.69
2023-03-05T18:33:42.212Z,99181.25
2023-03-05T18:36:12.009Z,99187.84
2023-03-05T18:38:39.541Z,99188.53
2023-03-05T18:41:08.022Z,99190.84
2023-03-05T18:43:36.160Z,99191.41
2023-03-05T18:46:05.010Z,99192.69
2023-03-05T18:48:32.362Z,99196.25
2023-03-05T18:51:01.906Z,99196.72
2023-03-05T18:53:29.696Z,99195.09
2023-03-05T18:55:56.867Z,99199.53
2023-03-05T18:58:25.930Z,99196.56
2023-03-05T19:00:53.373Z,99196.09
2023-03-05T19:03:22.901Z,99192.13
2023-03-05T19:05:51.205Z,99190.59
2023-03-05T19:08:19.490Z,99197.09
2023-03-05T19:10:47.656Z,99184.34
2023-03-05T19:13:48.876Z,99185.94
2023-03-05T19:16:30.265Z,99196.59
2023-03-05T19:19:25.358Z,99191.38
2023-03-05T19:21:59.857Z,99191.63
2023-03-05T19:24:31.324Z,99194.69
2023-03-05T19:27:00.976Z,99195.63
2023-03-05T19:29:32.779Z,99194.34
2023-03-05T19:32:00.023Z,99200.00
2023-03-05T19:34:27.276Z,99200.63
2023-03-05T19:36:54.453Z,99204.66
2023-03-05T19:39:21.787Z,99198.03
2023-03-05T19:41:49.185Z,99202.97
2023-03-05T19:44:17.432Z,99200.13
2023-03-05T19:46:44.871Z,99201.88
2023-03-05T19:49:12.054Z,99197.06
2023-03-05T19:51:43.847Z,99202.00
2023-03-05T19:54:13.333Z,99202.56
2023-03-05T19:56:42.979Z,99200.50
2023-03-05T19:59:11.038Z,99210.59
2023-03-05T20:01:38.459Z,99207.50
2023-03-05T20:04:06.174Z,99206.59
2023-03-05T20:06:34.548Z,99207.25
2023-03-05T20:09:01.804Z,99207.00
2023-03-05T20:11:29.278Z,99213.03
2023-03-05T20:13:57.019Z,99209.94
2023-03-05T20:16:29.921Z,99213.25
2023-03-05T20:18:59.615Z,99209.72
2023-03-05T20:21:39.820Z,99213.13
2023-03-05T20:24:15.498Z,99211.84
2023-03-05T20:26:45.833Z,99208.28
2023-03-05T20:29:17.611Z,99206.50
2023-03-05T20:31:47.480Z,99209.16
2023-03-05T20:34:18.856Z,99209.16
2023-03-05T20:36:46.589Z,99205.25
2023-03-05T20:39:13.788Z,99214.53
2023-03-05T20:41:41.452Z,99218.19
2023-03-05T20:44:11.257Z,99214.97
2023-03-05T20:47:45.857Z,99221.47
2023-03-05T20:50:14.969Z,99224.72
2023-03-05T20:52:42.202Z,99213.44
2023-03-05T20:55:11.285Z,99220.25
2023-03-05T20:57:39.172Z,99221.84
2023-03-05T21:00:08.206Z,99218.75
2023-03-05T21:02:35.500Z,99219.44
2023-03-05T21:05:02.727Z,99213.78
2023-03-05T21:07:30.744Z,99222.09
2023-03-05T21:10:06.240Z,99221.03
2023-03-05T21:12:33.768Z,99219.28
2023-03-05T21:15:00.922Z,99226.13
2023-03-05T21:17:33.077Z,99223.50
2023-03-05T21:20:00.935Z,99222.31
2023-03-05T21:22:28.072Z,99213.03
2023-03-05T21:25:14.750Z,99216.16
2023-03-05T21:27:44.341Z,99224.56
2023-03-05T21:30:12.392Z,99225.78
2023-03-05T21:32:48.020Z,99222.56
2023-03-05T21:35:21.567Z,99218.84
2023-03-05T21:37:49.096Z,99221.50
2023-03-05T21:40:25.009Z,99217.22
2023-03-05T21:42:52.941Z,99214.22
2023-03-05T21:45:26.998Z,99216.31
2023-03-05T21:47:56.128Z,99219.59
2023-03-05T21:50:25.754Z,99219.22
2023-03-05T21:52:53.930Z,99212.81
2023-03-05T21:56:30.912Z,99209.84
2023-03-05T21:58:58.195Z,99216.97
2023-03-05T22:01:25.454Z,99207.97
2023-03-05T22:03:53.841Z,99207.44
2023-03-05T22:06:21.988Z,99203.66
2023-03-05T22:08:51.844Z,99211.63
2023-03-05T22:11:22.885Z,99212.47
2023-03-05T22:13:53.239Z,99205.75
2023-03-05T22:16:26.842Z,99201.72
2023-03-05T22:18:54.847Z,99199.56
2023-03-05T22:21:27.315Z,99205.59
2023-03-05T22:23:58.699Z,99197.03
2023-03-05T22:26:37.381Z,99195.03
2023-03-05T22:29:06.166Z,99196.22
2023-03-05T22:31:33.360Z,99199.34
2023-03-05T22:34:00.548Z,99198.34
2023-03-05T22:36:27.739Z,99190.31
2023-03-05T22:38:55.009Z,99183.91
2023-03-05T22:41:22.460Z,99183.75
2023-03-05T22:43:51.101Z,99185.56
2023-03-05T22:46:25.796Z,99182.66
2023-03-05T22:48:53.024Z,99183.59
2023-03-05T22:51:21.160Z,99177.59
2023-03-05T22:53:48.537Z,99182.72
2023-03-05T22:56:19.406Z,99180.59
2023-03-05T22:58:47.236Z,99182.81
2023-03-05T23:01:25.670Z,99188.19
2023-03-05T23:04:49.355Z,99176.41
2023-03-05T23:07:43.794Z,99182.03
2023-03-05T23:10:26.954Z,99174.38
2023-03-05T23:12:57.135Z,99175.41
2023-03-05T23:15:34.369Z,99179.56
2023-03-05T23:18:02.279Z,99179.66
2023-03-05T23:20:36.664Z,99179.72
2023-03-05T23:23:04.780Z,99175.56
2023-03-05T23:25:34.978Z,99173.03
2023-03-05T23:28:02.953Z,99173.84
2023-03-05T23:30:38.754Z,99175.94
2023-03-05T23:33:23.010Z,99172.53
2023-03-05T23:35:58.416Z,99174.31
2023-03-05T23:38:29.246Z,99175.94
2023-03-05T23:41:01.132Z,99177.75
2023-03-05T23:43:29.511Z,99171.56
2023-03-05T23:45:57.124Z,99179.53
2023-03-05T23:48:27.656Z,99178.06
2023-03-05T23:50:55.479Z,99173.94
2023-03-05T23:53:27.890Z,99170.19
2023-03-05T23:55:56.588Z,99174.72
2023-03-05T23:58:24.592Z,99171.97
